Terminal Aerodrome Forecast
Issued by NWS Paducah, KY

Home | Current Version | Previous Version | Text Only | Print | Product List | Glossary On
Versions: 1 2 3 4 5 6 7 8 9 10 11 12 13 14 15 16
000
FTUS43 KPAH 302300
TAFPAH
TAF
KPAH 302325Z 3100/3124 15003KT P6SM -SHRA OVC080
     FM310800 36005KT P6SM OVC035
     FM311200 36012G18KT P6SM OVC025
     FM311700 34018G28KT P6SM BKN050=

USA.gov is the U.S. government's official web portal to all federal, state and local government web resources and services.